createdAt,value
2019-03-27T00:00:39.852Z,4.85
2019-03-27T00:03:54.141Z,4.90
2019-03-27T00:07:08.562Z,4.94
2019-03-27T00:10:22.573Z,4.95
2019-03-27T00:13:36.713Z,4.90
2019-03-27T00:16:50.712Z,4.75
2019-03-27T00:20:06.254Z,4.81
2019-03-27T00:23:20.603Z,4.79
2019-03-27T00:26:34.727Z,4.80
2019-03-27T00:29:48.755Z,4.83
2019-03-27T00:33:02.918Z,4.85
2019-03-27T00:36:16.941Z,4.85
2019-03-27T00:39:30.969Z,4.84
2019-03-27T00:42:45.365Z,4.83
2019-03-27T00:45:59.463Z,4.81
2019-03-27T00:49:13.527Z,4.75
2019-03-27T00:52:27.565Z,4.57
2019-03-27T00:55:41.700Z,4.53
2019-03-27T00:58:56.004Z,4.46
2019-03-27T01:02:10.223Z,4.43
2019-03-27T01:05:24.354Z,4.30
2019-03-27T01:08:38.588Z,4.17
2019-03-27T01:11:52.698Z,4.13
2019-03-27T01:15:07.151Z,4.12
2019-03-27T01:18:21.275Z,4.12
2019-03-27T01:21:35.284Z,4.10
2019-03-27T01:24:49.313Z,4.08
2019-03-27T01:28:03.428Z,4.07
2019-03-27T01:31:17.479Z,4.03
2019-03-27T01:34:31.505Z,3.97
2019-03-27T01:37:45.619Z,3.91
2019-03-27T01:40:59.643Z,3.90
2019-03-27T01:44:13.661Z,3.92
2019-03-27T01:47:27.712Z,3.85
2019-03-27T01:50:42.142Z,3.81
2019-03-27T01:53:56.399Z,3.77
2019-03-27T01:57:10.670Z,3.75
2019-03-27T02:00:24.710Z,3.71
2019-03-27T02:03:38.691Z,3.69
2019-03-27T02:06:52.811Z,3.65
2019-03-27T02:10:07.948Z,3.65
2019-03-27T02:13:22.059Z,3.69
2019-03-27T02:16:36.423Z,3.70
2019-03-27T02:19:50.551Z,3.66
2019-03-27T02:23:04.959Z,3.68
2019-03-27T02:26:18.983Z,3.67
2019-03-27T02:29:32.996Z,3.67
2019-03-27T02:32:47.023Z,3.68
2019-03-27T02:36:01.043Z,3.66
2019-03-27T02:39:15.067Z,3.63
2019-03-27T02:42:29.403Z,3.64
2019-03-27T02:45:43.443Z,3.64
2019-03-27T02:48:57.581Z,3.67
2019-03-27T02:52:12.555Z,3.67
2019-03-27T02:55:26.585Z,3.68
2019-03-27T02:58:40.603Z,3.67
2019-03-27T03:01:54.599Z,3.70
2019-03-27T03:05:09.071Z,3.72
2019-03-27T03:08:23.188Z,3.69
2019-03-27T03:11:37.308Z,3.63
2019-03-27T03:14:51.314Z,3.56
2019-03-27T03:18:05.801Z,3.54
2019-03-27T03:21:19.875Z,3.54
2019-03-27T03:24:33.889Z,3.54
2019-03-27T03:27:47.899Z,3.55
2019-03-27T03:31:02.534Z,3.57
2019-03-27T03:34:16.605Z,3.62
2019-03-27T03:37:30.629Z,3.58
2019-03-27T03:40:44.949Z,3.52
2019-03-27T03:43:58.955Z,3.49
2019-03-27T03:47:13.105Z,3.46
2019-03-27T03:50:39.111Z,3.44
2019-03-27T03:53:53.204Z,3.43
2019-03-27T03:57:08.134Z,3.38
2019-03-27T04:00:22.556Z,3.23
2019-03-27T04:03:39.451Z,3.24
2019-03-27T04:06:53.456Z,3.26
2019-03-27T04:10:07.900Z,3.28
2019-03-27T04:13:21.892Z,3.30
2019-03-27T04:16:35.914Z,3.22
2019-03-27T04:19:50.086Z,3.12
2019-03-27T04:23:04.229Z,3.14
2019-03-27T04:26:18.389Z,3.20
2019-03-27T04:29:32.376Z,3.22
2019-03-27T04:32:46.414Z,3.20
2019-03-27T04:36:00.411Z,3.20
2019-03-27T04:39:14.397Z,3.25
2019-03-27T04:42:28.671Z,3.26
2019-03-27T04:45:42.700Z,3.28
2019-03-27T04:48:56.928Z,3.27
2019-03-27T04:52:10.944Z,3.26
2019-03-27T04:55:24.949Z,3.21
2019-03-27T04:58:39.050Z,3.23
2019-03-27T05:01:53.157Z,3.27
2019-03-27T05:05:07.440Z,3.29
2019-03-27T05:08:21.456Z,3.28
2019-03-27T05:11:35.557Z,3.27
2019-03-27T05:14:49.555Z,3.23
2019-03-27T05:18:03.780Z,3.18
2019-03-27T05:21:17.785Z,3.17
2019-03-27T05:24:31.788Z,3.18
2019-03-27T05:27:45.794Z,3.19
2019-03-27T05:30:59.814Z,3.16
2019-03-27T05:34:14.102Z,3.15
2019-03-27T05:37:28.135Z,3.07
2019-03-27T05:40:42.418Z,3.06
2019-03-27T05:43:56.687Z,2.98
2019-03-27T05:47:10.694Z,2.95
2019-03-27T05:50:24.816Z,2.96
2019-03-27T05:53:38.926Z,2.96
2019-03-27T05:56:52.936Z,2.95
2019-03-27T06:00:07.979Z,2.92
2019-03-27T06:03:21.977Z,2.89
2019-03-27T06:06:36.085Z,2.89
2019-03-27T06:09:50.340Z,2.87
2019-03-27T06:13:04.347Z,2.89
2019-03-27T06:16:18.357Z,2.91
2019-03-27T06:19:32.440Z,2.91
2019-03-27T06:22:46.451Z,2.79
2019-03-27T06:26:00.439Z,2.81
2019-03-27T06:29:15.817Z,2.79
2019-03-27T06:32:30.172Z,2.82
2019-03-27T06:35:44.296Z,2.89
2019-03-27T06:38:58.595Z,2.95
2019-03-27T06:42:12.605Z,2.95
2019-03-27T06:45:26.898Z,3.04
2019-03-27T06:48:41.195Z,3.10
2019-03-27T06:51:55.464Z,3.18
2019-03-27T06:55:09.563Z,3.29
2019-03-27T06:58:23.564Z,3.41
2019-03-27T07:01:37.676Z,3.53
2019-03-27T07:04:51.664Z,3.69
2019-03-27T07:08:05.812Z,3.85
2019-03-27T07:11:19.790Z,3.95
2019-03-27T07:14:34.231Z,4.09
2019-03-27T07:17:48.573Z,4.23
2019-03-27T07:21:03.009Z,4.42
2019-03-27T07:24:17.020Z,4.63
2019-03-27T07:27:31.081Z,4.84
2019-03-27T07:30:45.028Z,5.07
2019-03-27T07:33:59.139Z,5.32
2019-03-27T07:37:13.156Z,5.59
2019-03-27T07:40:27.171Z,5.79
2019-03-27T07:43:41.182Z,6.03
2019-03-27T07:46:55.284Z,6.33
2019-03-27T07:50:09.552Z,6.58
2019-03-27T07:53:23.559Z,6.87
2019-03-27T07:56:37.719Z,7.14
2019-03-27T07:59:52.029Z,7.39
2019-03-27T08:03:06.584Z,7.53
2019-03-27T08:06:20.919Z,7.59
2019-03-27T08:09:35.039Z,7.68
2019-03-27T08:12:49.141Z,7.68
2019-03-27T08:16:03.729Z,7.69
2019-03-27T08:19:17.703Z,7.74
2019-03-27T08:22:31.721Z,7.77
2019-03-27T08:25:46.451Z,7.79
2019-03-27T08:29:00.489Z,7.83
2019-03-27T08:32:15.214Z,7.87
2019-03-27T08:35:29.327Z,7.87
2019-03-27T08:38:43.425Z,7.87
2019-03-27T08:41:57.746Z,7.87
2019-03-27T08:45:12.269Z,7.95
2019-03-27T08:48:26.314Z,8.07
2019-03-27T08:51:40.332Z,8.20
2019-03-27T08:54:54.669Z,8.19
2019-03-27T08:58:08.944Z,8.29
2019-03-27T09:01:23.344Z,8.62
2019-03-27T09:04:37.360Z,9.08
2019-03-27T09:07:51.423Z,9.13
2019-03-27T09:11:05.967Z,9.14
2019-03-27T09:14:20.276Z,9.38
2019-03-27T09:17:34.488Z,9.22
2019-03-27T09:20:48.556Z,9.32
2019-03-27T09:24:03.116Z,9.36
2019-03-27T09:27:17.219Z,9.62
2019-03-27T09:30:31.231Z,10.27
2019-03-27T09:33:45.234Z,10.46
2019-03-27T09:37:00.414Z,10.86
2019-03-27T09:40:15.077Z,10.79
2019-03-27T09:43:29.078Z,10.42
2019-03-27T09:46:43.504Z,10.01
2019-03-27T09:49:57.524Z,9.86
2019-03-27T09:53:11.745Z,9.82
2019-03-27T09:56:26.681Z,9.80
2019-03-27T09:59:40.711Z,9.82
2019-03-27T10:02:57.176Z,9.84
2019-03-27T10:06:11.135Z,9.72
2019-03-27T10:09:25.147Z,9.81
2019-03-27T10:12:39.281Z,10.02
2019-03-27T10:15:53.743Z,10.08
2019-03-27T10:19:07.734Z,10.20
2019-03-27T10:22:21.748Z,10.31
2019-03-27T10:25:35.774Z,10.42
2019-03-27T10:28:49.804Z,10.55
2019-03-27T10:32:04.003Z,10.79
2019-03-27T10:35:18.343Z,10.97
2019-03-27T10:38:32.486Z,11.08
2019-03-27T10:41:46.699Z,11.31
2019-03-27T10:45:00.921Z,12.11
2019-03-27T10:48:14.939Z,12.73
2019-03-27T10:51:28.982Z,13.79
2019-03-27T10:54:43.094Z,15.15
2019-03-27T10:57:57.535Z,16.47
2019-03-27T11:01:11.954Z,16.06
2019-03-27T11:04:25.958Z,15.14
2019-03-27T11:07:40.324Z,14.59
2019-03-27T11:10:55.344Z,13.71
2019-03-27T11:14:09.652Z,13.12
2019-03-27T11:17:23.785Z,12.77
2019-03-27T11:20:38.048Z,12.26
2019-03-27T11:23:52.199Z,12.10
2019-03-27T11:27:06.303Z,12.34
2019-03-27T11:30:30.225Z,12.34
2019-03-27T11:33:44.268Z,12.21
2019-03-27T11:36:58.392Z,12.45
2019-03-27T11:40:12.714Z,12.26
2019-03-27T11:43:26.730Z,12.03
2019-03-27T11:46:40.724Z,12.05
2019-03-27T11:49:54.752Z,12.07
2019-03-27T11:53:09.051Z,11.81
2019-03-27T11:56:23.089Z,11.72
2019-03-27T11:59:37.072Z,11.71
2019-03-27T12:03:10.582Z,11.82
2019-03-27T12:06:24.805Z,11.99
2019-03-27T12:09:38.818Z,12.07
2019-03-27T12:12:53.233Z,12.05
2019-03-27T12:19:37.891Z,11.98
2019-03-27T12:22:57.635Z,11.72
2019-03-27T12:26:07.715Z,11.78
2019-03-27T12:29:21.840Z,11.85
2019-03-27T12:32:36.347Z,12.09
2019-03-27T12:35:50.638Z,12.35
2019-03-27T12:39:06.241Z,12.63
2019-03-27T12:42:20.596Z,12.87
2019-03-27T12:45:34.628Z,12.67
2019-03-27T12:48:48.769Z,12.68
2019-03-27T12:52:05.492Z,12.64
2019-03-27T12:55:19.270Z,12.71
2019-03-27T12:58:33.425Z,12.81
2019-03-27T13:01:47.829Z,13.02
2019-03-27T13:05:03.566Z,12.93
2019-03-27T13:08:17.848Z,12.58
2019-03-27T13:11:32.201Z,12.54
2019-03-27T13:14:46.636Z,12.73
2019-03-27T13:18:00.936Z,12.94
2019-03-27T13:21:25.772Z,12.85
2019-03-27T13:24:31.712Z,12.89
2019-03-27T13:27:47.484Z,12.94
2019-03-27T13:31:01.776Z,12.98
2019-03-27T13:34:16.770Z,12.79
2019-03-27T13:37:30.831Z,12.56
2019-03-27T13:40:44.951Z,12.62
2019-03-27T13:43:59.393Z,12.71
2019-03-27T13:47:13.644Z,12.74
2019-03-27T13:50:28.084Z,12.80
2019-03-27T13:53:42.217Z,13.08
2019-03-27T13:56:56.290Z,13.11
2019-03-27T14:00:13.320Z,13.14
2019-03-27T14:03:27.687Z,13.40
2019-03-27T14:06:44.623Z,13.64
2019-03-27T14:09:58.037Z,13.78
2019-03-27T14:13:12.193Z,13.43
2019-03-27T14:16:26.240Z,13.30
2019-03-27T14:19:40.284Z,12.78
2019-03-27T14:22:54.540Z,12.70
2019-03-27T14:26:08.837Z,13.82
2019-03-27T14:29:23.184Z,15.39
2019-03-27T14:32:37.695Z,15.62
2019-03-27T14:35:51.913Z,14.89
2019-03-27T14:39:06.828Z,14.25
2019-03-27T14:42:20.856Z,13.77
2019-03-27T14:45:35.660Z,13.36
2019-03-27T14:48:49.682Z,13.08
2019-03-27T14:52:08.343Z,12.90
2019-03-27T14:55:19.956Z,12.58
2019-03-27T14:58:34.384Z,12.45
2019-03-27T15:01:48.475Z,12.45
2019-03-27T15:05:03.499Z,12.40
2019-03-27T15:08:17.637Z,12.41
2019-03-27T15:11:31.679Z,12.51
2019-03-27T15:14:45.722Z,12.51
2019-03-27T15:18:00.028Z,12.59
2019-03-27T15:21:14.042Z,12.70
2019-03-27T15:24:28.076Z,12.41
2019-03-27T15:27:42.063Z,12.40
2019-03-27T15:30:56.356Z,12.47
2019-03-27T15:34:10.378Z,12.62
2019-03-27T15:37:24.477Z,12.68
2019-03-27T15:40:40.532Z,12.54
2019-03-27T15:43:54.692Z,13.09
2019-03-27T15:47:08.843Z,14.04
2019-03-27T15:50:22.870Z,14.47
2019-03-27T15:53:37.199Z,14.53
2019-03-27T15:56:51.330Z,14.72
2019-03-27T16:00:05.872Z,14.91
2019-03-27T16:03:20.212Z,14.89
2019-03-27T16:06:34.293Z,15.00
2019-03-27T16:09:48.728Z,14.87
2019-03-27T16:13:03.168Z,15.18
2019-03-27T16:16:17.428Z,15.12
2019-03-27T16:19:31.579Z,14.66
2019-03-27T16:22:51.010Z,13.96
2019-03-27T16:26:02.263Z,13.83
2019-03-27T16:29:16.259Z,13.54
2019-03-27T16:32:30.368Z,13.37
2019-03-27T16:35:44.748Z,13.15
2019-03-27T16:38:58.966Z,13.13
2019-03-27T16:42:13.012Z,13.12
2019-03-27T16:45:27.338Z,13.08
2019-03-27T16:48:41.828Z,12.99
2019-03-27T16:51:56.547Z,13.02
2019-03-27T16:55:10.996Z,13.15
2019-03-27T16:58:25.036Z,12.91
2019-03-27T17:01:39.260Z,12.60
2019-03-27T17:04:54.337Z,12.38
2019-03-27T17:08:08.484Z,12.33
2019-03-27T17:11:22.609Z,12.05
2019-03-27T17:14:36.661Z,11.91
2019-03-27T17:17:50.676Z,11.79
2019-03-27T17:21:04.921Z,11.62
2019-03-27T17:24:18.952Z,11.45
2019-03-27T17:27:33.246Z,11.26
2019-03-27T17:30:47.387Z,11.04
2019-03-27T17:34:01.541Z,10.68
2019-03-27T17:37:15.698Z,10.42
2019-03-27T17:40:29.830Z,10.18
2019-03-27T17:43:44.175Z,9.99
2019-03-27T17:46:58.520Z,9.70
2019-03-27T17:50:13.165Z,9.48
2019-03-27T17:53:31.944Z,9.29
2019-03-27T17:56:43.452Z,9.13
2019-03-27T17:59:57.579Z,8.96
2019-03-27T18:03:11.855Z,8.73
2019-03-27T18:06:26.099Z,8.51
2019-03-27T18:09:40.295Z,8.26
2019-03-27T18:12:54.397Z,8.10
2019-03-27T18:16:08.730Z,7.98
2019-03-27T18:19:23.042Z,7.86
2019-03-27T18:22:37.068Z,7.73
2019-03-27T18:25:51.108Z,7.62
2019-03-27T18:29:05.140Z,7.51
2019-03-27T18:32:19.164Z,7.35
2019-03-27T18:35:33.171Z,7.15
2019-03-27T18:38:47.247Z,6.95
2019-03-27T18:42:01.342Z,6.76
2019-03-27T18:45:15.445Z,6.49
2019-03-27T18:48:29.497Z,6.22
2019-03-27T18:51:43.569Z,6.10
2019-03-27T18:54:58.086Z,6.07
2019-03-27T18:58:12.105Z,6.01
2019-03-27T19:01:26.131Z,5.96
2019-03-27T19:04:40.146Z,5.90
2019-03-27T19:07:54.872Z,5.81
2019-03-27T19:11:09.000Z,5.66
2019-03-27T19:14:23.004Z,5.41
2019-03-27T19:17:37.142Z,5.20
2019-03-27T19:20:51.613Z,5.11
2019-03-27T19:24:14.850Z,4.95
2019-03-27T19:27:22.200Z,4.72
2019-03-27T19:30:36.289Z,4.75
2019-03-27T19:33:50.280Z,4.78
2019-03-27T19:37:04.404Z,4.75
2019-03-27T19:40:18.528Z,4.48
2019-03-27T19:43:32.578Z,4.34
2019-03-27T19:46:46.587Z,4.12
2019-03-27T19:50:00.612Z,4.08
2019-03-27T19:53:14.630Z,4.07
2019-03-27T19:56:28.794Z,4.05
2019-03-27T19:59:43.260Z,3.93
2019-03-27T20:02:57.384Z,3.96
2019-03-27T20:06:11.520Z,3.95
2019-03-27T20:09:25.536Z,3.78
2019-03-27T20:12:39.557Z,3.69
2019-03-27T20:15:53.941Z,3.49
2019-03-27T20:19:08.127Z,3.50
2019-03-27T20:22:22.258Z,3.44
2019-03-27T20:25:36.358Z,3.44
2019-03-27T20:28:50.386Z,3.32
2019-03-27T20:32:04.780Z,3.18
2019-03-27T20:35:18.909Z,3.18
2019-03-27T20:38:32.930Z,3.12
2019-03-27T20:41:47.192Z,2.98
2019-03-27T20:45:01.422Z,2.93
2019-03-27T20:48:15.551Z,2.82
2019-03-27T20:51:29.608Z,2.77
2019-03-27T20:54:54.427Z,2.66
2019-03-27T20:57:59.682Z,2.69
2019-03-27T21:01:13.859Z,2.70
2019-03-27T21:04:27.791Z,2.64
2019-03-27T21:07:42.089Z,2.42
2019-03-27T21:10:56.098Z,2.38
2019-03-27T21:14:10.221Z,2.37
2019-03-27T21:17:24.670Z,2.31
2019-03-27T21:20:38.763Z,2.31
2019-03-27T21:23:52.894Z,2.34
2019-03-27T21:27:06.904Z,2.20
2019-03-27T21:30:21.022Z,2.15
2019-03-27T21:33:35.036Z,2.16
2019-03-27T21:36:49.355Z,2.17
2019-03-27T21:40:04.496Z,2.10
2019-03-27T21:43:18.619Z,2.09
2019-03-27T21:46:32.654Z,2.07
2019-03-27T21:49:46.670Z,2.01
2019-03-27T21:53:01.267Z,1.97
2019-03-27T21:56:15.467Z,1.93
2019-03-27T21:59:29.487Z,1.92
2019-03-27T22:02:43.720Z,1.86
2019-03-27T22:05:57.835Z,1.69
2019-03-27T22:09:11.920Z,1.70
2019-03-27T22:12:26.235Z,1.71
2019-03-27T22:15:40.253Z,1.72
2019-03-27T22:18:54.500Z,1.68
2019-03-27T22:22:08.519Z,1.64
2019-03-27T22:25:34.958Z,1.53
2019-03-27T22:28:38.572Z,1.40
2019-03-27T22:31:52.602Z,1.40
2019-03-27T22:35:07.215Z,1.40
2019-03-27T22:38:21.556Z,1.42
2019-03-27T22:41:35.673Z,1.32
2019-03-27T22:44:49.934Z,1.35
2019-03-27T22:48:04.480Z,1.32
2019-03-27T22:51:18.743Z,1.22
2019-03-27T22:54:33.035Z,1.25
2019-03-27T22:57:47.382Z,1.31
2019-03-27T23:01:01.496Z,1.25
2019-03-27T23:04:16.187Z,1.24
2019-03-27T23:07:30.191Z,1.12
2019-03-27T23:10:44.492Z,1.04
2019-03-27T23:13:58.766Z,1.02
2019-03-27T23:17:13.181Z,1.13
2019-03-27T23:20:27.214Z,1.10
2019-03-27T23:23:41.256Z,1.05
2019-03-27T23:26:55.241Z,1.07
2019-03-27T23:30:09.702Z,1.12
2019-03-27T23:33:23.733Z,1.13
2019-03-27T23:36:37.735Z,1.01
2019-03-27T23:39:51.795Z,1.01
2019-03-27T23:43:06.018Z,1.04
2019-03-27T23:46:20.035Z,0.98
2019-03-27T23:49:34.028Z,0.93
2019-03-27T23:52:48.048Z,0.91
2019-03-27T23:56:02.078Z,0.85
2019-03-27T23:59:16.284Z,0.88
